sensor_id;sensor_type;location;lat;lon;timestamp;temperature;humidity
15178;DHT22;7689;53.612;-2.416;2022-12-29T00:02:15;8.10;99.90
15178;DHT22;7689;53.612;-2.416;2022-12-29T00:04:41;8.10;99.90
15178;DHT22;7689;53.612;-2.416;2022-12-29T00:07:07;8.00;99.90
15178;DHT22;7689;53.612;-2.416;2022-12-29T00:09:33;8.10;99.90
15178;DHT22;7689;53.612;-2.416;2022-12-29T00:12:00;8.10;99.90
15178;DHT22;7689;53.612;-2.416;2022-12-29T00:14:26;8.10;99.90
15178;DHT22;7689;53.612;-2.416;2022-12-29T00:17:11;8.00;99.90
15178;DHT22;7689;53.612;-2.416;2022-12-29T00:19:37;8.10;99.90
15178;DHT22;7689;53.612;-2.416;2022-12-29T00:22:22;8.00;99.90
15178;DHT22;7689;53.612;-2.416;2022-12-29T00:25:08;7.90;99.90
15178;DHT22;7689;53.612;-2.416;2022-12-29T00:27:35;7.80;99.90
15178;DHT22;7689;53.612;-2.416;2022-12-29T00:30:21;7.80;99.90
15178;DHT22;7689;53.612;-2.416;2022-12-29T00:33:17;7.70;99.90
15178;DHT22;7689;53.612;-2.416;2022-12-29T00:36:06;7.70;99.90
15178;DHT22;7689;53.612;-2.416;2022-12-29T00:38:37;7.60;99.90
15178;DHT22;7689;53.612;-2.416;2022-12-29T00:41:23;7.60;99.90
15178;DHT22;7689;53.612;-2.416;2022-12-29T00:44:08;7.60;99.90
15178;DHT22;7689;53.612;-2.416;2022-12-29T00:46:37;7.60;99.90
15178;DHT22;7689;53.612;-2.416;2022-12-29T00:49:04;7.60;99.90
15178;DHT22;7689;53.612;-2.416;2022-12-29T00:51:49;7.60;99.90
15178;DHT22;7689;53.612;-2.416;2022-12-29T00:54:15;7.60;99.90
15178;DHT22;7689;53.612;-2.416;2022-12-29T00:56:41;7.60;99.90
15178;DHT22;7689;53.612;-2.416;2022-12-29T00:59:09;7.60;99.90
15178;DHT22;7689;53.612;-2.416;2022-12-29T01:01:36;7.60;99.90
15178;DHT22;7689;53.612;-2.416;2022-12-29T01:04:03;7.50;99.90
15178;DHT22;7689;53.612;-2.416;2022-12-29T01:06:29;7.60;99.90
15178;DHT22;7689;53.612;-2.416;2022-12-29T01:08:54;7.60;99.90
15178;DHT22;7689;53.612;-2.416;2022-12-29T01:11:40;7.50;99.90
15178;DHT22;7689;53.612;-2.416;2022-12-29T01:14:06;7.50;99.90
15178;DHT22;7689;53.612;-2.416;2022-12-29T01:16:33;7.60;99.90
15178;DHT22;7689;53.612;-2.416;2022-12-29T01:18:59;7.50;99.90
15178;DHT22;7689;53.612;-2.416;2022-12-29T01:21:25;7.50;99.90
15178;DHT22;7689;53.612;-2.416;2022-12-29T01:23:50;7.50;99.90
15178;DHT22;7689;53.612;-2.416;2022-12-29T01:26:17;7.50;99.90
15178;DHT22;7689;53.612;-2.416;2022-12-29T01:28:43;7.50;99.90
15178;DHT22;7689;53.612;-2.416;2022-12-29T01:31:10;7.50;99.90
15178;DHT22;7689;53.612;-2.416;2022-12-29T01:33:36;7.50;99.90
15178;DHT22;7689;53.612;-2.416;2022-12-29T01:36:07;7.50;99.90
15178;DHT22;7689;53.612;-2.416;2022-12-29T01:38:34;7.40;99.90
15178;DHT22;7689;53.612;-2.416;2022-12-29T01:41:01;7.50;99.90
15178;DHT22;7689;53.612;-2.416;2022-12-29T01:43:46;7.50;99.90
15178;DHT22;7689;53.612;-2.416;2022-12-29T01:46:23;7.40;99.90
15178;DHT22;7689;53.612;-2.416;2022-12-29T01:49:15;7.40;99.90
15178;DHT22;7689;53.612;-2.416;2022-12-29T01:54:14;7.30;99.90
15178;DHT22;7689;53.612;-2.416;2022-12-29T01:56:41;7.30;99.90
15178;DHT22;7689;53.612;-2.416;2022-12-29T01:59:11;7.30;99.90
15178;DHT22;7689;53.612;-2.416;2022-12-29T02:01:37;7.30;99.90
15178;DHT22;7689;53.612;-2.416;2022-12-29T02:04:04;7.40;99.90
15178;DHT22;7689;53.612;-2.416;2022-12-29T02:06:34;7.30;99.90
15178;DHT22;7689;53.612;-2.416;2022-12-29T02:09:02;7.30;99.90
15178;DHT22;7689;53.612;-2.416;2022-12-29T02:11:29;7.20;99.90
15178;DHT22;7689;53.612;-2.416;2022-12-29T02:13:56;7.30;99.90
15178;DHT22;7689;53.612;-2.416;2022-12-29T02:16:30;7.20;99.90
15178;DHT22;7689;53.612;-2.416;2022-12-29T02:33:24;7.20;99.90
15178;DHT22;7689;53.612;-2.416;2022-12-29T02:38:56;7.20;99.90
15178;DHT22;7689;53.612;-2.416;2022-12-29T02:41:34;7.20;99.90
15178;DHT22;7689;53.612;-2.416;2022-12-29T02:44:25;7.20;99.90
15178;DHT22;7689;53.612;-2.416;2022-12-29T02:47:35;7.20;99.90
15178;DHT22;7689;53.612;-2.416;2022-12-29T02:50:18;7.20;99.90
15178;DHT22;7689;53.612;-2.416;2022-12-29T02:52:48;7.20;99.90
15178;DHT22;7689;53.612;-2.416;2022-12-29T02:55:15;7.20;99.90
15178;DHT22;7689;53.612;-2.416;2022-12-29T02:57:41;7.20;99.90
15178;DHT22;7689;53.612;-2.416;2022-12-29T03:00:15;7.20;99.90
15178;DHT22;7689;53.612;-2.416;2022-12-29T03:08:44;7.20;99.90
15178;DHT22;7689;53.612;-2.416;2022-12-29T03:11:14;7.20;99.90
15178;DHT22;7689;53.612;-2.416;2022-12-29T03:17:08;7.20;99.90
15178;DHT22;7689;53.612;-2.416;2022-12-29T03:19:38;7.20;99.90
15178;DHT22;7689;53.612;-2.416;2022-12-29T03:22:11;7.20;99.90
15178;DHT22;7689;53.612;-2.416;2022-12-29T03:25:21;7.20;99.90
15178;DHT22;7689;53.612;-2.416;2022-12-29T03:27:55;7.20;99.90
15178;DHT22;7689;53.612;-2.416;2022-12-29T03:30:21;7.20;99.90
15178;DHT22;7689;53.612;-2.416;2022-12-29T03:32:53;7.10;99.90
15178;DHT22;7689;53.612;-2.416;2022-12-29T03:35:22;7.20;99.90
15178;DHT22;7689;53.612;-2.416;2022-12-29T03:37:58;7.10;99.90
15178;DHT22;7689;53.612;-2.416;2022-12-29T03:40:26;7.20;99.90
15178;DHT22;7689;53.612;-2.416;2022-12-29T03:42:53;7.20;99.90
15178;DHT22;7689;53.612;-2.416;2022-12-29T03:45:20;7.20;99.90
15178;DHT22;7689;53.612;-2.416;2022-12-29T03:47:46;7.30;99.90
15178;DHT22;7689;53.612;-2.416;2022-12-29T03:50:12;7.20;99.90
15178;DHT22;7689;53.612;-2.416;2022-12-29T03:52:38;7.20;99.90
15178;DHT22;7689;53.612;-2.416;2022-12-29T03:55:04;7.30;99.90
15178;DHT22;7689;53.612;-2.416;2022-12-29T03:57:30;7.30;99.90
15178;DHT22;7689;53.612;-2.416;2022-12-29T03:59:56;7.30;99.90
15178;DHT22;7689;53.612;-2.416;2022-12-29T04:02:21;7.30;99.90
15178;DHT22;7689;53.612;-2.416;2022-12-29T04:04:47;7.30;99.90
15178;DHT22;7689;53.612;-2.416;2022-12-29T04:07:13;7.20;99.90
15178;DHT22;7689;53.612;-2.416;2022-12-29T04:09:38;7.20;99.90
15178;DHT22;7689;53.612;-2.416;2022-12-29T04:12:04;7.20;99.90
15178;DHT22;7689;53.612;-2.416;2022-12-29T04:14:30;7.20;99.90
15178;DHT22;7689;53.612;-2.416;2022-12-29T04:16:55;7.20;99.90
15178;DHT22;7689;53.612;-2.416;2022-12-29T04:19:21;7.20;99.90
15178;DHT22;7689;53.612;-2.416;2022-12-29T04:21:46;7.20;99.90
15178;DHT22;7689;53.612;-2.416;2022-12-29T04:24:12;7.20;99.90
15178;DHT22;7689;53.612;-2.416;2022-12-29T04:26:38;7.20;99.90
15178;DHT22;7689;53.612;-2.416;2022-12-29T04:29:04;7.20;99.90
15178;DHT22;7689;53.612;-2.416;2022-12-29T04:31:29;7.20;99.90
15178;DHT22;7689;53.612;-2.416;2022-12-29T04:33:55;7.20;99.90
15178;DHT22;7689;53.612;-2.416;2022-12-29T04:36:23;7.20;99.90
15178;DHT22;7689;53.612;-2.416;2022-12-29T04:38:49;7.20;99.90
15178;DHT22;7689;53.612;-2.416;2022-12-29T04:41:14;7.20;99.90
15178;DHT22;7689;53.612;-2.416;2022-12-29T04:43:40;7.20;99.90
15178;DHT22;7689;53.612;-2.416;2022-12-29T04:46:06;7.30;99.90
15178;DHT22;7689;53.612;-2.416;2022-12-29T04:48:31;7.30;99.90
15178;DHT22;7689;53.612;-2.416;2022-12-29T04:50:57;7.20;99.90
15178;DHT22;7689;53.612;-2.416;2022-12-29T04:53:23;7.20;99.90
15178;DHT22;7689;53.612;-2.416;2022-12-29T04:55:50;7.20;99.90
15178;DHT22;7689;53.612;-2.416;2022-12-29T04:58:16;7.20;99.90
15178;DHT22;7689;53.612;-2.416;2022-12-29T05:00:42;7.20;99.90
15178;DHT22;7689;53.612;-2.416;2022-12-29T05:03:07;7.20;99.90
15178;DHT22;7689;53.612;-2.416;2022-12-29T05:05:33;7.20;99.90
15178;DHT22;7689;53.612;-2.416;2022-12-29T05:07:58;7.20;99.90
15178;DHT22;7689;53.612;-2.416;2022-12-29T05:10:24;7.20;99.90
15178;DHT22;7689;53.612;-2.416;2022-12-29T05:12:50;7.20;99.90
15178;DHT22;7689;53.612;-2.416;2022-12-29T05:15:15;7.20;99.90
15178;DHT22;7689;53.612;-2.416;2022-12-29T05:17:41;7.20;99.90
15178;DHT22;7689;53.612;-2.416;2022-12-29T05:20:07;7.20;99.90
15178;DHT22;7689;53.612;-2.416;2022-12-29T05:22:33;7.20;99.90
15178;DHT22;7689;53.612;-2.416;2022-12-29T05:24:59;7.10;99.90
15178;DHT22;7689;53.612;-2.416;2022-12-29T05:27:25;7.20;99.90
15178;DHT22;7689;53.612;-2.416;2022-12-29T05:29:50;7.20;99.90
15178;DHT22;7689;53.612;-2.416;2022-12-29T05:32:16;7.20;99.90
15178;DHT22;7689;53.612;-2.416;2022-12-29T05:34:42;7.20;99.90
15178;DHT22;7689;53.612;-2.416;2022-12-29T05:37:07;7.20;99.90
15178;DHT22;7689;53.612;-2.416;2022-12-29T05:39:33;7.20;99.90
15178;DHT22;7689;53.612;-2.416;2022-12-29T05:41:58;7.20;99.90
15178;DHT22;7689;53.612;-2.416;2022-12-29T05:44:24;7.20;99.90
15178;DHT22;7689;53.612;-2.416;2022-12-29T05:46:50;7.20;99.90
15178;DHT22;7689;53.612;-2.416;2022-12-29T05:49:16;7.20;99.90
15178;DHT22;7689;53.612;-2.416;2022-12-29T05:51:41;7.20;99.90
15178;DHT22;7689;53.612;-2.416;2022-12-29T05:54:07;7.20;99.90
15178;DHT22;7689;53.612;-2.416;2022-12-29T05:56:33;7.20;99.90
15178;DHT22;7689;53.612;-2.416;2022-12-29T05:58:58;7.20;99.90
15178;DHT22;7689;53.612;-2.416;2022-12-29T06:01:24;7.20;99.90
15178;DHT22;7689;53.612;-2.416;2022-12-29T06:03:51;7.20;99.90
15178;DHT22;7689;53.612;-2.416;2022-12-29T06:06:17;7.20;99.90
15178;DHT22;7689;53.612;-2.416;2022-12-29T06:08:42;7.10;99.90
15178;DHT22;7689;53.612;-2.416;2022-12-29T06:11:08;7.10;99.90
15178;DHT22;7689;53.612;-2.416;2022-12-29T06:13:34;7.20;99.90
15178;DHT22;7689;53.612;-2.416;2022-12-29T06:15:59;7.10;99.90
15178;DHT22;7689;53.612;-2.416;2022-12-29T06:18:25;7.10;99.90
15178;DHT22;7689;53.612;-2.416;2022-12-29T06:20:51;7.10;99.90
15178;DHT22;7689;53.612;-2.416;2022-12-29T06:23:16;7.10;99.90
15178;DHT22;7689;53.612;-2.416;2022-12-29T06:25:44;7.10;99.90
15178;DHT22;7689;53.612;-2.416;2022-12-29T06:28:09;7.10;99.90
15178;DHT22;7689;53.612;-2.416;2022-12-29T06:30:36;7.10;99.90
15178;DHT22;7689;53.612;-2.416;2022-12-29T06:33:01;7.10;99.90
15178;DHT22;7689;53.612;-2.416;2022-12-29T06:35:27;7.10;99.90
15178;DHT22;7689;53.612;-2.416;2022-12-29T06:37:53;7.10;99.90
15178;DHT22;7689;53.612;-2.416;2022-12-29T06:40:18;7.10;99.90
15178;DHT22;7689;53.612;-2.416;2022-12-29T06:42:44;7.10;99.90
15178;DHT22;7689;53.612;-2.416;2022-12-29T06:45:10;7.10;99.90
15178;DHT22;7689;53.612;-2.416;2022-12-29T06:47:36;7.10;99.90
15178;DHT22;7689;53.612;-2.416;2022-12-29T06:50:02;7.10;99.90
15178;DHT22;7689;53.612;-2.416;2022-12-29T06:52:28;7.10;99.90
15178;DHT22;7689;53.612;-2.416;2022-12-29T06:54:54;7.10;99.90
15178;DHT22;7689;53.612;-2.416;2022-12-29T06:57:20;7.10;99.90
15178;DHT22;7689;53.612;-2.416;2022-12-29T06:59:46;5.70;99.90
15178;DHT22;7689;53.612;-2.416;2022-12-29T07:02:12;7.00;99.90
15178;DHT22;7689;53.612;-2.416;2022-12-29T07:04:40;7.00;99.90
15178;DHT22;7689;53.612;-2.416;2022-12-29T07:07:05;7.00;99.90
15178;DHT22;7689;53.612;-2.416;2022-12-29T07:09:31;7.00;99.90
15178;DHT22;7689;53.612;-2.416;2022-12-29T07:11:57;6.90;99.90
15178;DHT22;7689;53.612;-2.416;2022-12-29T07:14:22;6.90;99.90
15178;DHT22;7689;53.612;-2.416;2022-12-29T07:16:48;6.90;99.90
15178;DHT22;7689;53.612;-2.416;2022-12-29T07:19:14;6.90;99.90
15178;DHT22;7689;53.612;-2.416;2022-12-29T07:21:39;6.90;99.90
15178;DHT22;7689;53.612;-2.416;2022-12-29T07:24:05;6.90;99.90
15178;DHT22;7689;53.612;-2.416;2022-12-29T07:26:31;7.00;99.90
15178;DHT22;7689;53.612;-2.416;2022-12-29T07:28:56;7.00;99.90
15178;DHT22;7689;53.612;-2.416;2022-12-29T07:31:22;6.90;99.90
15178;DHT22;7689;53.612;-2.416;2022-12-29T07:33:48;7.00;99.90
15178;DHT22;7689;53.612;-2.416;2022-12-29T07:36:15;6.90;99.90
15178;DHT22;7689;53.612;-2.416;2022-12-29T07:38:42;7.00;99.90
15178;DHT22;7689;53.612;-2.416;2022-12-29T07:41:08;7.00;99.90
15178;DHT22;7689;53.612;-2.416;2022-12-29T07:43:33;7.00;99.90
15178;DHT22;7689;53.612;-2.416;2022-12-29T07:45:59;7.00;99.90
15178;DHT22;7689;53.612;-2.416;2022-12-29T07:48:25;6.90;99.90
15178;DHT22;7689;53.612;-2.416;2022-12-29T07:50:51;6.90;99.90
15178;DHT22;7689;53.612;-2.416;2022-12-29T07:53:17;6.90;99.90
15178;DHT22;7689;53.612;-2.416;2022-12-29T07:55:43;6.90;99.90
15178;DHT22;7689;53.612;-2.416;2022-12-29T07:58:08;6.90;99.90
15178;DHT22;7689;53.612;-2.416;2022-12-29T08:00:34;6.90;99.90
15178;DHT22;7689;53.612;-2.416;2022-12-29T08:03:00;6.90;99.90
15178;DHT22;7689;53.612;-2.416;2022-12-29T08:05:26;6.90;99.90
15178;DHT22;7689;53.612;-2.416;2022-12-29T08:07:51;6.90;99.90
15178;DHT22;7689;53.612;-2.416;2022-12-29T08:10:17;6.90;99.90
15178;DHT22;7689;53.612;-2.416;2022-12-29T08:12:43;6.90;99.90
15178;DHT22;7689;53.612;-2.416;2022-12-29T08:15:10;6.90;99.90
15178;DHT22;7689;53.612;-2.416;2022-12-29T08:17:37;6.80;99.90
15178;DHT22;7689;53.612;-2.416;2022-12-29T08:20:03;6.80;99.90
15178;DHT22;7689;53.612;-2.416;2022-12-29T08:22:29;6.80;99.90
15178;DHT22;7689;53.612;-2.416;2022-12-29T08:24:54;6.70;99.90
15178;DHT22;7689;53.612;-2.416;2022-12-29T08:27:20;6.70;99.90
15178;DHT22;7689;53.612;-2.416;2022-12-29T08:29:46;6.70;99.90
15178;DHT22;7689;53.612;-2.416;2022-12-29T08:32:12;6.70;99.90
15178;DHT22;7689;53.612;-2.416;2022-12-29T08:34:38;6.70;99.90
15178;DHT22;7689;53.612;-2.416;2022-12-29T08:37:03;6.60;99.90
15178;DHT22;7689;53.612;-2.416;2022-12-29T08:39:29;6.60;99.90
15178;DHT22;7689;53.612;-2.416;2022-12-29T08:41:55;6.60;99.90
15178;DHT22;7689;53.612;-2.416;2022-12-29T08:44:21;6.50;99.90
15178;DHT22;7689;53.612;-2.416;2022-12-29T08:46:47;6.50;99.90
15178;DHT22;7689;53.612;-2.416;2022-12-29T08:49:12;6.50;99.90
15178;DHT22;7689;53.612;-2.416;2022-12-29T08:51:38;6.40;99.90
15178;DHT22;7689;53.612;-2.416;2022-12-29T08:54:04;6.40;99.90
15178;DHT22;7689;53.612;-2.416;2022-12-29T08:56:30;6.50;99.90
15178;DHT22;7689;53.612;-2.416;2022-12-29T08:58:55;6.50;99.90
15178;DHT22;7689;53.612;-2.416;2022-12-29T09:01:22;6.50;99.90
15178;DHT22;7689;53.612;-2.416;2022-12-29T09:03:48;6.50;99.90
15178;DHT22;7689;53.612;-2.416;2022-12-29T09:06:15;6.40;99.90
15178;DHT22;7689;53.612;-2.416;2022-12-29T09:08:42;6.40;99.90
15178;DHT22;7689;53.612;-2.416;2022-12-29T09:11:14;6.30;99.90
15178;DHT22;7689;53.612;-2.416;2022-12-29T09:13:41;6.30;99.90
15178;DHT22;7689;53.612;-2.416;2022-12-29T09:16:07;6.30;99.90
15178;DHT22;7689;53.612;-2.416;2022-12-29T09:18:33;5.80;99.90
15178;DHT22;7689;53.612;-2.416;2022-12-29T09:21:00;6.30;99.90
15178;DHT22;7689;53.612;-2.416;2022-12-29T09:23:26;6.30;99.90
15178;DHT22;7689;53.612;-2.416;2022-12-29T09:25:53;6.40;99.90
15178;DHT22;7689;53.612;-2.416;2022-12-29T09:28:20;6.30;99.90
15178;DHT22;7689;53.612;-2.416;2022-12-29T09:30:46;6.30;99.90
15178;DHT22;7689;53.612;-2.416;2022-12-29T09:33:12;6.30;99.90
15178;DHT22;7689;53.612;-2.416;2022-12-29T09:35:40;6.30;99.90
15178;DHT22;7689;53.612;-2.416;2022-12-29T09:38:06;6.30;99.90
15178;DHT22;7689;53.612;-2.416;2022-12-29T09:40:32;6.30;99.90
15178;DHT22;7689;53.612;-2.416;2022-12-29T09:45:58;6.30;99.90
15178;DHT22;7689;53.612;-2.416;2022-12-29T09:48:31;6.30;99.90
15178;DHT22;7689;53.612;-2.416;2022-12-29T09:51:02;6.30;99.90
15178;DHT22;7689;53.612;-2.416;2022-12-29T09:53:49;6.30;99.90
15178;DHT22;7689;53.612;-2.416;2022-12-29T09:56:22;6.30;99.90
15178;DHT22;7689;53.612;-2.416;2022-12-29T10:03:55;6.60;99.90
15178;DHT22;7689;53.612;-2.416;2022-12-29T10:24:47;6.50;99.90
15178;DHT22;7689;53.612;-2.416;2022-12-29T10:27:15;6.50;99.90
15178;DHT22;7689;53.612;-2.416;2022-12-29T10:29:51;6.50;99.90
15178;DHT22;7689;53.612;-2.416;2022-12-29T10:32:39;6.40;99.90
15178;DHT22;7689;53.612;-2.416;2022-12-29T10:35:14;6.40;99.90
15178;DHT22;7689;53.612;-2.416;2022-12-29T10:38:01;6.40;99.90
15178;DHT22;7689;53.612;-2.416;2022-12-29T10:40:32;6.40;99.90
15178;DHT22;7689;53.612;-2.416;2022-12-29T10:43:02;6.40;99.90
15178;DHT22;7689;53.612;-2.416;2022-12-29T10:45:31;6.50;99.90
15178;DHT22;7689;53.612;-2.416;2022-12-29T10:48:00;6.50;99.90
15178;DHT22;7689;53.612;-2.416;2022-12-29T10:50:28;6.50;99.90
15178;DHT22;7689;53.612;-2.416;2022-12-29T10:52:57;6.50;99.90
15178;DHT22;7689;53.612;-2.416;2022-12-29T10:55:30;6.50;99.90
15178;DHT22;7689;53.612;-2.416;2022-12-29T10:58:02;6.50;99.90
15178;DHT22;7689;53.612;-2.416;2022-12-29T11:00:31;6.60;99.90
15178;DHT22;7689;53.612;-2.416;2022-12-29T11:08:41;6.90;99.90
15178;DHT22;7689;53.612;-2.416;2022-12-29T11:11:23;6.90;99.90
15178;DHT22;7689;53.612;-2.416;2022-12-29T11:14:08;6.90;99.90
15178;DHT22;7689;53.612;-2.416;2022-12-29T11:16:35;6.90;99.90
15178;DHT22;7689;53.612;-2.416;2022-12-29T11:19:01;6.90;99.90
15178;DHT22;7689;53.612;-2.416;2022-12-29T11:21:34;7.00;99.90
15178;DHT22;7689;53.612;-2.416;2022-12-29T11:24:02;7.00;99.90
15178;DHT22;7689;53.612;-2.416;2022-12-29T11:26:30;7.00;99.90
15178;DHT22;7689;53.612;-2.416;2022-12-29T11:31:57;7.00;99.90
15178;DHT22;7689;53.612;-2.416;2022-12-29T11:34:35;7.00;99.90
15178;DHT22;7689;53.612;-2.416;2022-12-29T11:37:09;6.90;99.90
15178;DHT22;7689;53.612;-2.416;2022-12-29T11:42:02;6.80;99.90
15178;DHT22;7689;53.612;-2.416;2022-12-29T11:44:37;6.80;99.90
15178;DHT22;7689;53.612;-2.416;2022-12-29T11:47:04;6.70;99.90
15178;DHT22;7689;53.612;-2.416;2022-12-29T11:49:31;6.80;99.90
15178;DHT22;7689;53.612;-2.416;2022-12-29T11:51:56;6.90;99.90
15178;DHT22;7689;53.612;-2.416;2022-12-29T11:56:48;6.90;99.90
15178;DHT22;7689;53.612;-2.416;2022-12-29T12:01:53;6.90;99.90
15178;DHT22;7689;53.612;-2.416;2022-12-29T12:04:23;7.00;99.90
15178;DHT22;7689;53.612;-2.416;2022-12-29T12:07:44;7.00;99.90
15178;DHT22;7689;53.612;-2.416;2022-12-29T12:13:32;7.10;99.90
15178;DHT22;7689;53.612;-2.416;2022-12-29T12:16:18;7.20;99.90
15178;DHT22;7689;53.612;-2.416;2022-12-29T12:18:56;7.20;99.90
15178;DHT22;7689;53.612;-2.416;2022-12-29T12:21:41;7.20;99.90
15178;DHT22;7689;53.612;-2.416;2022-12-29T12:24:27;7.20;99.90
15178;DHT22;7689;53.612;-2.416;2022-12-29T12:30:05;7.30;99.90
15178;DHT22;7689;53.612;-2.416;2022-12-29T12:33:03;7.30;99.90
15178;DHT22;7689;53.612;-2.416;2022-12-29T12:40:59;7.40;99.90
15178;DHT22;7689;53.612;-2.416;2022-12-29T12:43:48;7.40;99.90
15178;DHT22;7689;53.612;-2.416;2022-12-29T12:54:59;7.30;99.90
15178;DHT22;7689;53.612;-2.416;2022-12-29T13:00:53;7.20;99.90
15178;DHT22;7689;53.612;-2.416;2022-12-29T13:03:31;7.20;99.90
15178;DHT22;7689;53.612;-2.416;2022-12-29T13:06:25;7.10;99.90
15178;DHT22;7689;53.612;-2.416;2022-12-29T13:18:03;7.30;99.90
15178;DHT22;7689;53.612;-2.416;2022-12-29T13:20:41;7.30;99.90
15178;DHT22;7689;53.612;-2.416;2022-12-29T13:31:16;7.40;99.90
15178;DHT22;7689;53.612;-2.416;2022-12-29T13:41:34;7.40;99.90
15178;DHT22;7689;53.612;-2.416;2022-12-29T13:44:03;7.30;99.90
15178;DHT22;7689;53.612;-2.416;2022-12-29T13:46:40;7.20;99.90
15178;DHT22;7689;53.612;-2.416;2022-12-29T13:49:19;7.30;99.90
15178;DHT22;7689;53.612;-2.416;2022-12-29T13:52:04;7.30;99.90
15178;DHT22;7689;53.612;-2.416;2022-12-29T14:02:27;7.20;99.90
15178;DHT22;7689;53.612;-2.416;2022-12-29T14:05:03;7.20;99.90
15178;DHT22;7689;53.612;-2.416;2022-12-29T14:07:36;7.30;99.90
15178;DHT22;7689;53.612;-2.416;2022-12-29T14:10:03;7.40;99.90
15178;DHT22;7689;53.612;-2.416;2022-12-29T14:15:05;7.50;99.90
15178;DHT22;7689;53.612;-2.416;2022-12-29T14:17:32;7.50;99.90
15178;DHT22;7689;53.612;-2.416;2022-12-29T14:19:58;7.60;99.90
15178;DHT22;7689;53.612;-2.416;2022-12-29T14:22:25;7.60;99.90
15178;DHT22;7689;53.612;-2.416;2022-12-29T14:24:51;7.70;99.90
15178;DHT22;7689;53.612;-2.416;2022-12-29T14:29:44;7.80;99.90
15178;DHT22;7689;53.612;-2.416;2022-12-29T14:34:59;7.80;99.90
15178;DHT22;7689;53.612;-2.416;2022-12-29T14:37:32;7.80;99.90
15178;DHT22;7689;53.612;-2.416;2022-12-29T14:40:19;7.70;99.90
15178;DHT22;7689;53.612;-2.416;2022-12-29T14:42:49;7.70;99.90
15178;DHT22;7689;53.612;-2.416;2022-12-29T14:47:44;7.60;99.90
15178;DHT22;7689;53.612;-2.416;2022-12-29T14:53:05;7.60;99.90
15178;DHT22;7689;53.612;-2.416;2022-12-29T14:55:47;7.50;99.90
15178;DHT22;7689;53.612;-2.416;2022-12-29T14:58:29;7.50;99.90
15178;DHT22;7689;53.612;-2.416;2022-12-29T15:00:55;7.40;99.90
15178;DHT22;7689;53.612;-2.416;2022-12-29T15:03:43;7.40;99.90
15178;DHT22;7689;53.612;-2.416;2022-12-29T15:06:11;7.40;99.90
15178;DHT22;7689;53.612;-2.416;2022-12-29T15:11:51;7.40;99.90
15178;DHT22;7689;53.612;-2.416;2022-12-29T15:17:00;7.30;99.90
15178;DHT22;7689;53.612;-2.416;2022-12-29T15:19:27;7.30;99.90
15178;DHT22;7689;53.612;-2.416;2022-12-29T15:21:56;7.30;99.90
15178;DHT22;7689;53.612;-2.416;2022-12-29T15:24:22;7.40;99.90
15178;DHT22;7689;53.612;-2.416;2022-12-29T15:26:53;7.40;99.90
15178;DHT22;7689;53.612;-2.416;2022-12-29T15:29:55;7.20;99.90
15178;DHT22;7689;53.612;-2.416;2022-12-29T15:32:40;7.30;99.90
15178;DHT22;7689;53.612;-2.416;2022-12-29T15:35:35;7.30;99.90
15178;DHT22;7689;53.612;-2.416;2022-12-29T15:38:14;7.30;99.90
15178;DHT22;7689;53.612;-2.416;2022-12-29T15:40:43;7.20;99.90
15178;DHT22;7689;53.612;-2.416;2022-12-29T15:45:38;7.10;99.90
15178;DHT22;7689;53.612;-2.416;2022-12-29T15:48:05;7.10;99.90
15178;DHT22;7689;53.612;-2.416;2022-12-29T15:50:34;7.00;99.90
15178;DHT22;7689;53.612;-2.416;2022-12-29T15:53:01;7.00;99.90
15178;DHT22;7689;53.612;-2.416;2022-12-29T15:55:33;7.00;99.90
15178;DHT22;7689;53.612;-2.416;2022-12-29T15:58:01;6.90;99.90
15178;DHT22;7689;53.612;-2.416;2022-12-29T16:00:34;6.90;99.90
15178;DHT22;7689;53.612;-2.416;2022-12-29T16:03:04;6.90;99.90
15178;DHT22;7689;53.612;-2.416;2022-12-29T16:05:36;6.90;99.90
15178;DHT22;7689;53.612;-2.416;2022-12-29T16:08:03;6.90;99.90
15178;DHT22;7689;53.612;-2.416;2022-12-29T16:10:40;6.90;99.90
15178;DHT22;7689;53.612;-2.416;2022-12-29T16:13:30;6.80;99.90
15178;DHT22;7689;53.612;-2.416;2022-12-29T16:16:03;6.80;99.90
15178;DHT22;7689;53.612;-2.416;2022-12-29T16:18:35;6.80;99.90
15178;DHT22;7689;53.612;-2.416;2022-12-29T16:21:04;6.80;99.90
15178;DHT22;7689;53.612;-2.416;2022-12-29T16:23:31;6.80;99.90
15178;DHT22;7689;53.612;-2.416;2022-12-29T16:25:57;6.80;99.90
15178;DHT22;7689;53.612;-2.416;2022-12-29T16:28:35;6.80;99.90
15178;DHT22;7689;53.612;-2.416;2022-12-29T16:31:06;6.80;99.90
15178;DHT22;7689;53.612;-2.416;2022-12-29T16:33:52;6.80;99.90
15178;DHT22;7689;53.612;-2.416;2022-12-29T16:38:50;6.90;99.90
15178;DHT22;7689;53.612;-2.416;2022-12-29T16:41:31;6.80;99.90
15178;DHT22;7689;53.612;-2.416;2022-12-29T16:44:16;6.80;99.90
15178;DHT22;7689;53.612;-2.416;2022-12-29T16:49:36;6.80;99.90
15178;DHT22;7689;53.612;-2.416;2022-12-29T16:52:19;6.80;99.90
15178;DHT22;7689;53.612;-2.416;2022-12-29T16:55:03;6.80;99.90
15178;DHT22;7689;53.612;-2.416;2022-12-29T16:57:35;6.70;99.90
15178;DHT22;7689;53.612;-2.416;2022-12-29T17:00:05;6.70;99.90
15178;DHT22;7689;53.612;-2.416;2022-12-29T17:02:32;6.60;99.90
15178;DHT22;7689;53.612;-2.416;2022-12-29T17:04:58;6.60;99.90
15178;DHT22;7689;53.612;-2.416;2022-12-29T17:07:26;6.60;99.90
15178;DHT22;7689;53.612;-2.416;2022-12-29T17:09:52;6.60;99.90
15178;DHT22;7689;53.612;-2.416;2022-12-29T17:12:27;6.60;99.90
15178;DHT22;7689;53.612;-2.416;2022-12-29T17:15:26;6.50;99.90
15178;DHT22;7689;53.612;-2.416;2022-12-29T17:17:53;6.50;99.90
15178;DHT22;7689;53.612;-2.416;2022-12-29T17:20:22;6.40;99.90
15178;DHT22;7689;53.612;-2.416;2022-12-29T17:22:48;6.40;99.90
15178;DHT22;7689;53.612;-2.416;2022-12-29T17:25:20;6.40;99.90
15178;DHT22;7689;53.612;-2.416;2022-12-29T17:27:58;6.40;99.90
15178;DHT22;7689;53.612;-2.416;2022-12-29T17:30:26;6.30;99.90
15178;DHT22;7689;53.612;-2.416;2022-12-29T17:33:01;6.30;99.90
15178;DHT22;7689;53.612;-2.416;2022-12-29T17:35:28;6.30;99.90
15178;DHT22;7689;53.612;-2.416;2022-12-29T17:37:53;6.30;99.90
15178;DHT22;7689;53.612;-2.416;2022-12-29T17:40:31;6.30;99.90
15178;DHT22;7689;53.612;-2.416;2022-12-29T17:42:58;6.30;99.90
15178;DHT22;7689;53.612;-2.416;2022-12-29T17:45:31;6.30;99.90
15178;DHT22;7689;53.612;-2.416;2022-12-29T17:47:58;6.30;99.90
15178;DHT22;7689;53.612;-2.416;2022-12-29T17:50:28;6.30;99.90
15178;DHT22;7689;53.612;-2.416;2022-12-29T17:52:56;6.30;99.90
15178;DHT22;7689;53.612;-2.416;2022-12-29T17:55:23;6.30;99.90
15178;DHT22;7689;53.612;-2.416;2022-12-29T17:57:49;6.30;99.90
15178;DHT22;7689;53.612;-2.416;2022-12-29T18:00:17;6.30;99.90
15178;DHT22;7689;53.612;-2.416;2022-12-29T18:02:44;6.30;99.90
15178;DHT22;7689;53.612;-2.416;2022-12-29T18:05:19;6.30;99.90
15178;DHT22;7689;53.612;-2.416;2022-12-29T18:07:45;6.20;99.90
15178;DHT22;7689;53.612;-2.416;2022-12-29T18:10:12;6.20;99.90
15178;DHT22;7689;53.612;-2.416;2022-12-29T18:12:40;6.20;99.90
15178;DHT22;7689;53.612;-2.416;2022-12-29T18:17:44;6.10;99.90
15178;DHT22;7689;53.612;-2.416;2022-12-29T18:20:10;6.00;99.90
15178;DHT22;7689;53.612;-2.416;2022-12-29T18:22:35;6.00;99.90
15178;DHT22;7689;53.612;-2.416;2022-12-29T18:25:01;5.90;99.90
15178;DHT22;7689;53.612;-2.416;2022-12-29T18:27:27;6.00;99.90
15178;DHT22;7689;53.612;-2.416;2022-12-29T18:29:53;5.90;99.90
15178;DHT22;7689;53.612;-2.416;2022-12-29T18:32:19;5.80;99.90
15178;DHT22;7689;53.612;-2.416;2022-12-29T18:34:46;5.80;99.90
15178;DHT22;7689;53.612;-2.416;2022-12-29T18:37:13;5.80;99.90
15178;DHT22;7689;53.612;-2.416;2022-12-29T18:39:39;5.70;99.90
15178;DHT22;7689;53.612;-2.416;2022-12-29T18:42:05;5.70;99.90